Time;durP1;ratioP1;P1;durP2;ratioP2;P2;SDS_P1;SDS_P2;PMS_P1;PMS_P2;Temp;Humidity;BMP_temperature;BMP_pressure;BME280_temperature;BME280_humidity;BME280_pressure;Samples;Min_cycle;Max_cycle;Signal;HPM_P1;HPM_P2
2022/07/22 00:00:41;;;;;;;14.05;8.13;;;;;;;19.34;63.43;100361.18;1741150;82;25594;-68
2022/07/22 00:03:07;;;;;;;10.55;7.70;;;;;;;19.32;63.79;100362.69;1778859;80;25581;-68
2022/07/22 00:05:33;;;;;;;13.10;7.92;;;;;;;19.31;63.81;100358.38;1741318;82;25536;-68
2022/07/22 00:07:59;;;;;;;15.10;8.73;;;;;;;19.29;63.79;100362.05;1778838;80;25517;-69
2022/07/22 00:10:26;;;;;;;10.10;7.42;;;;;;;19.27;64.08;100356.14;1778828;80;29600;-68
2022/07/22 00:12:53;;;;;;;15.08;8.35;;;;;;;19.25;63.92;100357.88;1740826;82;25792;-68
2022/07/22 00:15:19;;;;;;;15.45;8.58;;;;;;;19.22;63.97;100358.05;1778638;80;25388;-68
2022/07/22 00:17:46;;;;;;;14.78;8.43;;;;;;;19.21;64.26;100362.52;1778803;80;25498;-68
2022/07/22 00:20:12;;;;;;;13.40;8.00;;;;;;;19.18;64.20;100362.66;1741205;82;25470;-68
2022/07/22 00:22:38;;;;;;;13.50;8.00;;;;;;;19.16;64.06;100355.39;1778772;80;27524;-68
2022/07/22 00:25:06;;;;;;;10.10;7.65;;;;;;;19.15;64.24;100358.49;1778885;80;25602;-68
2022/07/22 00:27:32;;;;;;;11.60;7.78;;;;;;;19.12;64.63;100358.66;1749421;80;25461;-68
2022/07/22 00:29:59;;;;;;;12.10;8.03;;;;;;;19.09;64.60;100352.53;1778559;80;25539;-68
2022/07/22 00:32:25;;;;;;;10.78;7.42;;;;;;;19.05;64.63;100355.77;1778892;80;25566;-67
2022/07/22 00:34:51;;;;;;;13.30;8.33;;;;;;;19.01;64.83;100347.48;1741557;82;27455;-68
2022/07/22 00:37:18;;;;;;;15.45;8.10;;;;;;;19.00;64.80;100343.73;1741097;82;25803;-68
2022/07/22 00:39:44;;;;;;;9.93;7.75;;;;;;;18.96;64.86;100341.52;1711145;83;25483;-68
2022/07/22 00:42:10;;;;;;;14.03;8.63;;;;;;;18.94;65.21;100337.77;1741032;82;27655;-68
2022/07/22 00:44:36;;;;;;;11.45;8.03;;;;;;;18.92;65.22;100337.36;1711738;83;25508;-68
2022/07/22 00:47:03;;;;;;;13.90;8.40;;;;;;;18.93;65.31;100337.55;1741272;82;27546;-68
2022/07/22 00:49:29;;;;;;;13.80;8.20;;;;;;;18.92;65.21;100337.36;1710841;83;25693;-68
2022/07/22 00:51:56;;;;;;;10.43;8.35;;;;;;;18.91;65.21;100334.98;1741272;82;25569;-68
2022/07/22 00:54:22;;;;;;;11.57;7.85;;;;;;;18.88;65.06;100332.37;1711540;83;26052;-67
2022/07/22 00:56:49;;;;;;;12.60;7.70;;;;;;;18.87;65.22;100330.02;1741346;82;25489;-68
2022/07/22 00:59:17;;;;;;;13.93;7.87;;;;;;;18.87;66.00;100333.55;1710940;83;28134;-68
2022/07/22 01:01:46;;;;;;;13.65;8.50;;;;;;;18.89;66.12;100329.86;1740477;82;25634;-69
2022/07/22 01:04:13;;;;;;;13.28;9.40;;;;;;;18.90;66.22;100323.23;1711038;83;25209;-69
2022/07/22 01:06:44;;;;;;;12.98;7.95;;;;;;;18.93;66.18;100329.92;1740424;82;26263;-68
2022/07/22 01:09:08;;;;;;;15.87;8.07;;;;;;;18.93;66.11;100329.92;1711262;83;25645;-68
2022/07/22 01:11:34;;;;;;;10.75;7.58;;;;;;;18.93;66.23;100333.44;1741226;82;27589;-69
2022/07/22 01:14:00;;;;;;;13.05;8.40;;;;;;;18.95;66.32;100331.70;1711593;83;25876;-68
2022/07/22 01:16:26;;;;;;;10.32;7.95;;;;;;;18.98;66.67;100329.03;1711684;83;25598;-68
2022/07/22 01:18:53;;;;;;;10.25;8.03;;;;;;;19.02;66.68;100329.90;1741349;82;26349;-73
2022/07/22 01:21:20;;;;;;;14.50;8.60;;;;;;;19.04;66.41;100336.39;1740100;82;25432;-68
2022/07/22 01:23:47;;;;;;;10.10;7.92;;;;;;;19.04;66.19;100324.05;1741274;82;29648;-68
2022/07/22 01:26:14;;;;;;;10.28;7.80;;;;;;;19.02;66.02;100331.86;1741183;82;25391;-69
2022/07/22 01:28:41;;;;;;;10.85;8.08;;;;;;;18.98;65.98;100328.24;1741271;82;25459;-68
2022/07/22 01:31:09;;;;;;;12.75;8.10;;;;;;;18.94;65.97;100322.70;1740730;82;25616;-67
2022/07/22 01:33:36;;;;;;;11.12;8.23;;;;;;;18.91;66.03;100325.38;1740726;82;25634;-67
2022/07/22 01:36:03;;;;;;;11.40;8.03;;;;;;;18.84;66.05;100317.23;1741287;82;27494;-67
2022/07/22 01:38:30;;;;;;;14.63;8.85;;;;;;;18.81;66.17;100317.96;1740944;82;25473;-67
2022/07/22 01:40:56;;;;;;;11.85;7.92;;;;;;;18.79;66.50;100318.09;1712667;82;25512;-67
2022/07/22 01:43:23;;;;;;;13.95;8.60;;;;;;;18.78;66.30;100317.88;1716691;81;25577;-68
2022/07/22 01:45:52;;;;;;;10.40;7.85;;;;;;;18.76;66.55;100312.78;1707150;83;25447;-67
2022/07/22 01:48:21;;;;;;;11.95;9.23;;;;;;;18.70;66.54;100316.18;1707221;83;28325;-67
2022/07/22 01:50:48;;;;;;;14.68;8.15;;;;;;;18.65;66.85;100309.83;1707015;83;25855;-67
2022/07/22 01:53:14;;;;;;;11.12;8.13;;;;;;;18.65;67.09;100313.16;1706910;83;25569;-67
2022/07/22 01:55:41;;;;;;;16.05;8.55;;;;;;;18.61;67.10;100315.83;1706896;83;25583;-67
2022/07/22 01:58:07;;;;;;;9.15;7.37;;;;;;;18.59;67.22;100313.22;1707106;83;25554;-67
2022/07/22 02:00:35;;;;;;;12.80;8.30;;;;;;;18.56;67.29;100313.39;1706889;83;27561;-69
2022/07/22 02:03:01;;;;;;;9.95;8.40;;;;;;;18.54;67.14;100309.41;1706900;83;25412;-68
2022/07/22 02:05:29;;;;;;;13.45;9.13;;;;;;;18.52;67.22;100309.77;1707208;83;25582;-68
2022/07/22 02:08:04;;;;;;;16.52;8.60;;;;;;;18.51;67.43;100314.23;1706762;84;25578;-68
2022/07/22 02:10:31;;;;;;;9.90;8.10;;;;;;;18.46;67.36;100310.65;1706950;83;25569;-69
2022/07/22 02:12:59;;;;;;;13.53;8.93;;;;;;;18.43;67.57;100320.17;1706831;83;27465;-68
2022/07/22 02:15:26;;;;;;;11.80;8.20;;;;;;;18.39;67.42;100319.29;1706946;83;25743;-69
2022/07/22 02:17:54;;;;;;;8.83;7.65;;;;;;;18.37;67.55;100321.61;1706883;83;25478;-68
2022/07/22 02:20:21;;;;;;;12.63;8.85;;;;;;;18.34;67.67;100325.06;1706951;83;25567;-69
2022/07/22 02:22:48;;;;;;;10.20;8.30;;;;;;;18.32;67.86;100330.11;1707029;83;25648;-69
2022/07/22 02:25:14;;;;;;;14.43;8.85;;;;;;;18.29;68.08;100329.69;1707285;83;28050;-69
2022/07/22 02:27:41;;;;;;;16.02;9.43;;;;;;;18.26;68.13;100327.66;1707157;83;25393;-69
2022/07/22 02:30:10;;;;;;;13.95;9.18;;;;;;;18.24;68.28;100329.97;1706966;83;25790;-69
2022/07/22 02:32:36;;;;;;;14.13;9.53;;;;;;;18.21;68.40;100334.79;1707025;83;25498;-68
2022/07/22 02:35:04;;;;;;;15.95;8.70;;;;;;;18.18;68.29;100336.88;1707057;83;25423;-68
2022/07/22 02:37:30;;;;;;;12.45;8.83;;;;;;;18.14;68.41;100337.38;1706896;83;27468;-68
2022/07/22 02:39:56;;;;;;;11.00;9.03;;;;;;;18.14;68.42;100340.70;1706961;83;27499;-68
2022/07/22 02:42:23;;;;;;;11.65;9.60;;;;;;;18.11;68.61;100342.20;1687749;82;25388;-68
2022/07/22 02:44:49;;;;;;;11.60;8.68;;;;;;;18.10;68.63;100346.11;1740370;82;27777;-69
2022/07/22 02:47:15;;;;;;;9.70;8.68;;;;;;;18.08;68.77;100342.36;1740977;82;25643;-68
2022/07/22 02:49:41;;;;;;;14.35;9.48;;;;;;;18.05;68.94;100342.28;1740901;82;26565;-68
2022/07/22 02:52:07;;;;;;;13.93;8.83;;;;;;;18.03;69.07;100340.46;1778246;80;27309;-68
2022/07/22 02:54:34;;;;;;;10.93;9.15;;;;;;;18.01;69.18;100337.30;1778643;80;25369;-68
2022/07/22 02:57:00;;;;;;;11.97;8.80;;;;;;;18.01;69.02;100349.03;1740756;82;25615;-68
2022/07/22 02:59:28;;;;;;;14.38;10.25;;;;;;;18.00;69.45;100350.20;1741048;82;25610;-68
2022/07/22 03:01:54;;;;;;;12.10;9.85;;;;;;;18.01;69.84;100348.23;1778229;80;28097;-69
2022/07/22 03:04:20;;;;;;;15.78;9.98;;;;;;;18.00;69.95;100339.83;1778891;80;25376;-69
2022/07/22 03:06:46;;;;;;;12.15;10.35;;;;;;;18.01;69.82;100338.08;1778691;80;25381;-69
2022/07/22 03:09:12;;;;;;;12.33;9.28;;;;;;;18.01;70.06;100341.40;1778796;80;25603;-69
2022/07/22 03:11:39;;;;;;;12.25;9.68;;;;;;;18.01;69.68;100339.45;1741393;82;25582;-67
2022/07/22 03:14:06;;;;;;;12.47;9.88;;;;;;;18.03;69.82;100358.25;1778790;80;29586;-69
2022/07/22 03:16:32;;;;;;;17.75;12.13;;;;;;;18.03;70.27;100348.67;1778818;80;25579;-69
2022/07/22 03:18:59;;;;;;;14.13;11.20;;;;;;;18.03;70.61;100341.27;1778818;80;25388;-69
2022/07/22 03:21:25;;;;;;;16.45;9.80;;;;;;;18.05;71.00;100342.28;1777989;80;26218;-69
2022/07/22 03:23:53;;;;;;;12.65;10.50;;;;;;;18.08;70.95;100346.47;1741373;82;25575;-69
2022/07/22 03:26:21;;;;;;;11.93;9.65;;;;;;;18.10;70.76;100355.69;1778592;80;27508;-69
2022/07/22 03:28:48;;;;;;;12.20;10.03;;;;;;;18.13;70.83;100340.48;1741069;82;25402;-69
2022/07/22 03:31:14;;;;;;;13.03;10.08;;;;;;;18.12;70.99;100330.11;1778533;80;25481;-67
2022/07/22 03:33:41;;;;;;;14.03;10.78;;;;;;;18.14;71.03;100331.91;1778889;80;25477;-67
2022/07/22 03:36:08;;;;;;;15.65;9.90;;;;;;;18.16;71.16;100338.40;1778824;80;25412;-68
2022/07/22 03:38:36;;;;;;;13.22;10.38;;;;;;;18.15;71.04;100334.06;1778833;80;27531;-68
2022/07/22 03:41:03;;;;;;;16.77;10.90;;;;;;;18.15;70.96;100323.92;1778395;80;25386;-68
2022/07/22 03:43:31;;;;;;;13.88;10.68;;;;;;;18.16;71.04;100330.19;1753700;80;25528;-69
2022/07/22 03:45:57;;;;;;;15.05;12.40;;;;;;;18.17;71.60;100340.00;1726508;82;25566;-69
2022/07/22 03:48:23;;;;;;;15.43;11.12;;;;;;;18.20;71.84;100338.70;1726720;83;25553;-67
2022/07/22 03:50:50;;;;;;;13.93;10.98;;;;;;;18.24;71.95;100347.77;1726505;83;26621;-67
2022/07/22 03:53:17;;;;;;;13.98;10.35;;;;;;;18.28;71.87;100349.20;1726697;83;25766;-67
2022/07/22 03:55:44;;;;;;;17.23;10.93;;;;;;;18.32;71.89;100344.61;1726745;83;25653;-67
2022/07/22 03:58:10;;;;;;;19.15;12.20;;;;;;;18.35;71.84;100344.45;1726731;82;25561;-67
2022/07/22 04:00:36;;;;;;;15.72;11.88;;;;;;;18.38;71.92;100346.47;1726717;83;25391;-69
2022/07/22 04:03:03;;;;;;;16.73;11.45;;;;;;;18.41;71.95;100343.80;1726970;82;28334;-70
2022/07/22 04:05:29;;;;;;;13.68;11.33;;;;;;;18.44;71.91;100343.09;1726683;82;26007;-67
2022/07/22 04:07:55;;;;;;;13.95;10.32;;;;;;;18.48;71.99;100353.53;1726588;83;25541;-67
2022/07/22 04:10:22;;;;;;;13.83;9.65;;;;;;;18.51;71.95;100351.21;1726832;82;27613;-67
2022/07/22 04:12:48;;;;;;;14.80;11.15;;;;;;;18.55;71.69;100347.98;1726846;82;25610;-68
2022/07/22 04:15:14;;;;;;;19.07;11.22;;;;;;;18.58;71.66;100345.31;1726601;83;29626;-68
2022/07/22 04:17:41;;;;;;;11.78;10.18;;;;;;;18.61;71.80;100348.70;1726843;82;25456;-67
2022/07/22 04:20:09;;;;;;;14.10;11.25;;;;;;;18.67;71.82;100354.08;1726631;83;25411;-67
2022/07/22 04:22:35;;;;;;;16.62;12.53;;;;;;;18.72;71.94;100346.74;1726926;82;25571;-67
2022/07/22 04:25:01;;;;;;;16.07;11.68;;;;;;;18.77;72.06;100349.97;1726727;82;25400;-67
2022/07/22 04:27:27;;;;;;;15.18;11.05;;;;;;;18.83;72.00;100355.41;1726844;82;29788;-68
2022/07/22 04:29:54;;;;;;;19.45;11.57;;;;;;;18.89;72.03;100357.84;1726375;83;25451;-68
2022/07/22 04:32:21;;;;;;;22.42;12.37;;;;;;;18.93;71.92;100369.06;1726591;82;25623;-68
2022/07/22 04:34:47;;;;;;;15.45;10.98;;;;;;;18.97;71.79;100367.79;1727295;82;25541;-68
2022/07/22 04:37:14;;;;;;;17.75;11.90;;;;;;;19.02;71.97;100366.90;1726703;83;25541;-68
2022/07/22 04:39:40;;;;;;;18.37;10.93;;;;;;;19.08;72.03;100357.78;1726755;83;27470;-68
2022/07/22 04:42:06;;;;;;;15.43;11.18;;;;;;;19.15;72.10;100358.49;1726693;82;27457;-68
2022/07/22 04:44:33;;;;;;;15.58;11.60;;;;;;;19.23;72.14;100357.46;1716660;82;25550;-68
2022/07/22 04:46:59;;;;;;;12.58;10.90;;;;;;;19.33;72.30;100357.44;1741982;82;25607;-68
2022/07/22 04:49:25;;;;;;;17.42;10.93;;;;;;;19.44;72.65;100358.38;1742854;82;25446;-68
2022/07/22 04:51:52;;;;;;;16.70;11.30;;;;;;;19.55;72.65;100355.23;1742970;82;26916;-68
2022/07/22 04:54:18;;;;;;;16.55;10.63;;;;;;;19.68;72.71;100357.77;1742767;82;25548;-68
2022/07/22 04:56:45;;;;;;;15.75;11.33;;;;;;;19.82;72.82;100356.65;1742873;82;25374;-68
2022/07/22 04:59:11;;;;;;;16.15;11.63;;;;;;;19.93;72.49;100352.08;1732995;82;27672;-68
2022/07/22 05:01:37;;;;;;;19.27;10.60;;;;;;;20.05;72.25;100349.69;1736950;82;25391;-68
2022/07/22 05:04:04;;;;;;;20.27;11.03;;;;;;;20.19;72.30;100351.83;1742869;82;27511;-68
2022/07/22 05:06:30;;;;;;;16.65;11.22;;;;;;;20.32;72.32;100357.89;1706830;83;25670;-68
2022/07/22 05:08:56;;;;;;;17.23;10.32;;;;;;;20.46;72.12;100351.17;1686722;84;25558;-68
2022/07/22 05:11:22;;;;;;;16.93;11.73;;;;;;;20.61;72.04;100354.88;1706547;83;26173;-68
2022/07/22 05:13:49;;;;;;;18.05;11.60;;;;;;;20.74;71.70;100349.96;1706956;83;25572;-68
2022/07/22 05:16:15;;;;;;;18.10;10.80;;;;;;;20.85;71.33;100351.44;1706850;83;28098;-68
2022/07/22 05:18:41;;;;;;;18.92;11.28;;;;;;;20.97;71.35;100348.41;1706906;83;25628;-68
2022/07/22 05:21:07;;;;;;;14.75;10.60;;;;;;;21.10;71.07;100345.40;1742825;81;25552;-68
2022/07/22 05:23:34;;;;;;;18.07;11.55;;;;;;;21.25;70.78;100349.26;1742607;82;26122;-68
2022/07/22 05:26:05;;;;;;;19.75;10.40;;;;;;;21.37;70.56;100348.17;1742968;82;25405;-68
2022/07/22 05:28:31;;;;;;;17.90;10.90;;;;;;;21.51;70.55;100341.23;1742826;82;27534;-68
2022/07/22 05:30:58;;;;;;;19.50;10.98;;;;;;;21.66;70.17;100348.98;1742521;82;25437;-68
2022/07/22 05:33:24;;;;;;;30.27;11.08;;;;;;;21.79;69.92;100346.93;1742814;82;25415;-68
2022/07/22 05:35:50;;;;;;;17.85;10.88;;;;;;;21.95;69.57;100338.95;1742464;82;25614;-68
2022/07/22 05:38:16;;;;;;;16.23;10.82;;;;;;;22.09;69.20;100339.61;1742214;82;25638;-68
2022/07/22 05:40:42;;;;;;;15.63;10.48;;;;;;;22.24;69.03;100342.63;1742662;82;27547;-68
2022/07/22 05:43:09;;;;;;;21.50;11.22;;;;;;;22.42;68.61;100340.55;1743491;80;25441;-68
2022/07/22 05:45:35;;;;;;;17.40;10.35;;;;;;;22.59;68.38;100346.69;1778734;80;25364;-68
2022/07/22 05:48:02;;;;;;;21.12;10.35;;;;;;;22.78;67.84;100349.69;1778702;80;25551;-68
2022/07/22 05:50:29;;;;;;;17.92;9.90;;;;;;;22.91;67.35;100345.37;1778751;80;25436;-68
2022/07/22 05:52:55;;;;;;;15.45;9.43;;;;;;;23.08;67.10;100341.09;1778783;80;28231;-68
2022/07/22 05:55:21;;;;;;;16.32;10.00;;;;;;;23.25;66.51;100345.64;1777337;80;25758;-68
2022/07/22 05:57:47;;;;;;;14.75;10.45;;;;;;;23.44;66.08;100353.50;1778925;80;25381;-68
2022/07/22 06:00:15;;;;;;;13.20;8.90;;;;;;;23.60;65.55;100349.54;1778225;80;26146;-68
2022/07/22 06:02:41;;;;;;;17.87;8.70;;;;;;;23.80;65.42;100347.14;1778883;80;25603;-68
2022/07/22 06:05:08;;;;;;;14.73;9.23;;;;;;;24.01;64.69;100347.72;1740836;82;28411;-68
2022/07/22 06:07:34;;;;;;;12.40;8.18;;;;;;;24.18;62.99;100346.09;1741706;82;26112;-68
2022/07/22 06:10:00;;;;;;;12.47;8.00;;;;;;;24.33;62.79;100353.70;1709253;83;25583;-68
2022/07/22 06:12:27;;;;;;;20.27;8.85;;;;;;;24.50;62.63;100348.70;1711869;83;25610;-68
2022/07/22 06:14:52;;;;;;;11.25;7.70;;;;;;;24.70;61.87;100351.76;1741758;82;25600;-68
2022/07/22 06:17:19;;;;;;;15.08;7.72;;;;;;;24.92;60.95;100353.80;1741471;82;27445;-68
2022/07/22 06:19:45;;;;;;;14.65;7.78;;;;;;;25.10;60.03;100341.83;1741223;82;25530;-68
2022/07/22 06:22:11;;;;;;;11.55;6.70;;;;;;;25.30;59.39;100344.84;1741507;82;25548;-68
2022/07/22 06:24:37;;;;;;;10.28;6.28;;;;;;;25.49;58.18;100340.73;1740902;82;25595;-69
2022/07/22 06:27:04;;;;;;;11.55;6.33;;;;;;;25.67;57.00;100345.47;1741151;82;25543;-68
2022/07/22 06:29:30;;;;;;;11.35;6.28;;;;;;;25.88;56.55;100336.75;1741084;82;27662;-68
2022/07/22 06:31:56;;;;;;;7.75;5.95;;;;;;;26.11;54.83;100342.28;1741570;82;25439;-68
2022/07/22 06:34:22;;;;;;;8.38;5.85;;;;;;;26.31;53.84;100335.50;1741625;82;25555;-68
2022/07/22 06:36:48;;;;;;;14.73;5.78;;;;;;;26.55;53.63;100347.45;1741200;82;27701;-68
2022/07/22 06:39:15;;;;;;;8.25;5.20;;;;;;;26.78;52.46;100341.19;1740736;82;25633;-68
2022/07/22 06:41:41;;;;;;;11.83;4.97;;;;;;;27.03;52.00;100344.98;1741296;82;27454;-68
2022/07/22 06:44:07;;;;;;;10.93;5.42;;;;;;;27.28;50.91;100345.19;1740768;82;25633;-68
2022/07/22 06:46:33;;;;;;;9.45;5.03;;;;;;;27.57;51.10;100343.49;1741171;82;25605;-68
2022/07/22 06:49:00;;;;;;;8.03;4.92;;;;;;;27.84;49.93;100343.19;1741344;81;25583;-68
2022/07/22 06:51:27;;;;;;;6.45;4.15;;;;;;;28.07;48.31;100348.71;1741164;82;25460;-68
2022/07/22 06:53:53;;;;;;;9.25;4.50;;;;;;;28.25;45.02;100350.36;1741410;82;27522;-68
2022/07/22 06:56:20;;;;;;;7.53;4.10;;;;;;;28.40;46.29;100352.21;1740939;82;25469;-69
2022/07/22 06:58:46;;;;;;;8.75;4.92;;;;;;;28.69;46.59;100354.58;1741253;82;25642;-68
2022/07/22 07:01:15;;;;;;;10.20;4.60;;;;;;;28.92;45.06;100354.87;1741304;82;25635;-69
2022/07/22 07:03:41;;;;;;;7.53;4.05;;;;;;;29.06;43.87;100356.70;1737472;82;25547;-68
2022/07/22 07:06:11;;;;;;;6.97;4.62;;;;;;;29.27;44.48;100357.42;1741216;81;27562;-68
2022/07/22 07:08:39;;;;;;;8.13;4.95;;;;;;;29.54;43.79;100357.72;1740858;82;25685;-67
2022/07/22 07:11:06;;;;;;;5.33;4.12;;;;;;;29.76;42.31;100355.14;1741496;82;25410;-68
2022/07/22 07:13:33;;;;;;;9.85;4.72;;;;;;;29.96;42.23;100355.02;1740855;82;25601;-68
2022/07/22 07:16:02;;;;;;;8.18;4.90;;;;;;;30.10;42.21;100353.20;1741562;81;33149;-70
2022/07/22 07:18:28;;;;;;;10.25;4.35;;;;;;;30.33;41.21;100354.94;1741117;82;27501;-70
2022/07/22 07:20:55;;;;;;;6.70;4.62;;;;;;;30.51;40.94;100351.66;1741171;82;25537;-70
2022/07/22 07:23:22;;;;;;;10.15;4.87;;;;;;;30.67;40.14;100353.55;1740841;82;25445;-70
2022/07/22 07:25:49;;;;;;;11.18;4.83;;;;;;;30.76;39.29;100347.29;1741187;82;25550;-68
2022/07/22 07:28:15;;;;;;;18.37;12.23;;;;;;;30.85;39.74;100348.81;1741417;82;25570;-70
2022/07/22 07:30:42;;;;;;;9.60;4.70;;;;;;;30.95;39.78;100341.32;1740744;82;27562;-70
2022/07/22 07:33:08;;;;;;;10.48;4.67;;;;;;;31.06;39.24;100343.78;1711032;83;25580;-69
2022/07/22 07:35:35;;;;;;;8.48;4.95;;;;;;;31.09;38.93;100331.69;1711253;83;25540;-70
2022/07/22 07:38:01;;;;;;;13.58;5.15;;;;;;;31.24;39.50;100341.77;1741285;82;25425;-68
2022/07/22 07:40:27;;;;;;;11.68;5.50;;;;;;;31.57;39.25;100340.09;1741291;82;25603;-67
2022/07/22 07:42:53;;;;;;;14.47;5.00;;;;;;;31.87;39.79;100338.59;1736104;82;27494;-68
2022/07/22 07:45:20;;;;;;;10.75;4.95;;;;;;;32.10;38.48;100333.82;1704584;83;25501;-68
2022/07/22 07:47:46;;;;;;;12.80;4.90;;;;;;;32.17;36.63;100330.74;1701457;84;25457;-67
2022/07/22 07:50:13;;;;;;;13.53;5.00;;;;;;;32.26;38.26;100334.20;1695943;83;25488;-68
2022/07/22 07:52:43;;;;;;;10.72;5.37;;;;;;;32.64;38.24;100340.15;1696177;84;25419;-70
2022/07/22 07:55:10;;;;;;;9.75;5.30;;;;;;;33.02;36.96;100346.81;1758284;81;27516;-70
2022/07/22 07:57:36;;;;;;;10.30;4.92;;;;;;;33.08;36.61;100329.56;1758328;81;25437;-69
2022/07/22 08:00:08;;;;;;;16.17;6.30;;;;;;;33.15;35.66;100326.31;1758514;81;25545;-70
2022/07/22 08:02:34;;;;;;;11.00;4.67;;;;;;;33.29;36.30;100326.48;1758423;81;25439;-70
2022/07/22 08:05:01;;;;;;;12.45;5.00;;;;;;;33.54;35.35;100336.45;1758442;81;25569;-70
2022/07/22 08:07:29;;;;;;;8.10;4.70;;;;;;;33.61;35.30;100326.33;1758421;81;27457;-68
2022/07/22 08:09:55;;;;;;;9.93;4.97;;;;;;;33.77;34.73;100325.27;1758612;81;25557;-69
2022/07/22 08:12:22;;;;;;;8.95;4.60;;;;;;;33.83;34.42;100321.37;1758393;81;25555;-70
2022/07/22 09:52:02;;;;;;;14.05;7.60;;;;;;;40.63;22.80;100285.36;1832485;77;25582;-70
2022/07/22 09:54:30;;;;;;;9.63;7.37;;;;;;;40.52;23.13;100288.21;1790515;80;25582;-69
2022/07/22 09:56:57;;;;;;;12.25;7.75;;;;;;;40.60;23.31;100289.88;1790553;80;27503;-69
2022/07/22 09:59:26;;;;;;;10.38;7.37;;;;;;;40.84;23.88;100281.56;1790604;80;25533;-70
2022/07/22 10:01:56;;;;;;;11.43;7.75;;;;;;;41.27;21.94;100286.02;1790432;79;25416;-69
2022/07/22 10:04:24;;;;;;;9.85;7.00;;;;;;;40.86;21.75;100295.98;1790374;79;25720;-69
2022/07/22 10:06:53;;;;;;;11.22;7.25;;;;;;;40.42;21.79;100294.80;1790441;80;25610;-69
2022/07/22 10:09:22;;;;;;;15.75;7.30;;;;;;;40.17;22.21;100290.17;1790474;79;28325;-70
2022/07/22 10:11:48;;;;;;;16.12;8.08;;;;;;;40.19;23.09;100291.87;1759474;80;25549;-70
2022/07/22 10:14:17;;;;;;;13.28;8.00;;;;;;;40.60;22.78;100296.97;1790415;79;25451;-70
2022/07/22 10:16:44;;;;;;;11.30;8.83;;;;;;;40.95;23.54;100292.73;1790313;80;25617;-70
2022/07/22 10:19:11;;;;;;;21.20;14.98;;;;;;;41.49;22.63;100281.50;1790358;79;25570;-70
2022/07/22 10:21:38;;;;;;;12.73;9.03;;;;;;;41.54;21.71;100292.05;1790610;80;27558;-70
2022/07/22 10:24:23;;;;;;;14.18;8.93;;;;;;;40.96;21.56;100285.77;1790225;80;25586;-70
2022/07/22 10:26:55;;;;;;;12.13;9.85;;;;;;;41.09;22.86;100284.55;1790112;79;25597;-70
2022/07/22 10:29:46;;;;;;;11.38;9.18;;;;;;;41.40;22.26;100289.69;1790330;80;25450;-70
2022/07/22 10:32:22;;;;;;;18.02;10.32;;;;;;;41.21;22.25;100280.35;1790457;79;25606;-70
2022/07/22 10:35:12;;;;;;;16.35;10.10;;;;;;;40.87;22.32;100279.77;1790367;80;27532;-70
2022/07/22 10:37:43;;;;;;;10.72;8.13;;;;;;;40.58;22.62;100271.18;1790345;79;25529;-69
2022/07/22 10:40:22;;;;;;;11.53;7.40;;;;;;;40.91;23.06;100272.39;1790355;79;25482;-69
2022/07/22 10:43:04;;;;;;;13.70;7.75;;;;;;;41.32;21.84;100277.36;1789016;79;25582;-69
2022/07/22 10:45:41;;;;;;;12.98;8.05;;;;;;;41.56;21.38;100271.00;1790343;79;25610;-69
2022/07/22 10:48:10;;;;;;;18.70;8.83;;;;;;;41.75;21.87;100269.08;1790319;80;27204;-69
2022/07/22 10:50:44;;;;;;;14.87;7.72;;;;;;;41.62;20.45;100279.59;1787090;80;25474;-69
2022/07/22 10:53:17;;;;;;;12.58;8.03;;;;;;;41.11;21.07;100272.03;1779492;80;25543;-69
2022/07/22 10:56:15;;;;;;;10.95;8.40;;;;;;;40.49;21.27;100273.66;1778760;80;25625;-69
2022/07/22 10:58:46;;;;;;;14.75;8.08;;;;;;;40.06;22.22;100269.08;1779519;80;25511;-69
2022/07/22 11:01:16;;;;;;;16.85;8.70;;;;;;;40.17;22.66;100274.59;1779580;80;28060;-70
2022/07/22 11:03:45;;;;;;;10.20;7.45;;;;;;;39.89;22.30;100265.46;1778856;80;25724;-68
2022/07/22 11:06:30;;;;;;;13.72;8.60;;;;;;;39.64;21.94;100269.46;1778910;80;25454;-69
2022/07/22 11:09:02;;;;;;;16.85;7.97;;;;;;;39.46;22.01;100274.16;1778979;80;25456;-70
2022/07/22 11:11:42;;;;;;;19.15;8.98;;;;;;;39.43;22.55;100269.52;1778825;79;25536;-70
2022/07/22 11:14:30;;;;;;;11.95;8.80;;;;;;;39.59;22.41;100278.72;1778952;80;27479;-70
2022/07/22 11:17:02;;;;;;;14.45;7.25;;;;;;;39.72;22.34;100264.05;1778954;80;25567;-69
2022/07/22 11:19:34;;;;;;;15.03;8.48;;;;;;;39.81;21.48;100265.22;1778451;79;25461;-69
2022/07/22 11:22:04;;;;;;;13.93;7.33;;;;;;;39.75;21.60;100262.38;1778916;80;25722;-69
2022/07/22 11:24:32;;;;;;;10.90;7.00;;;;;;;39.83;21.82;100257.60;1778999;79;25397;-69
2022/07/22 11:27:00;;;;;;;10.35;8.08;;;;;;;40.07;21.73;100262.13;1779068;79;29717;-69
2022/07/22 11:29:37;;;;;;;16.90;9.35;;;;;;;40.24;21.50;100263.53;1779008;79;25452;-71
2022/07/22 11:32:07;;;;;;;19.80;8.93;;;;;;;39.96;21.40;100265.76;1779057;79;25539;-70
2022/07/22 11:34:47;;;;;;;13.38;8.43;;;;;;;39.84;22.42;100262.75;1778906;80;25549;-69
2022/07/22 11:37:22;;;;;;;11.22;8.45;;;;;;;40.41;22.24;100255.02;1778998;80;25579;-70
2022/07/22 11:39:50;;;;;;;17.05;10.78;;;;;;;40.93;22.22;100247.88;1778983;80;27541;-70
2022/07/22 11:42:17;;;;;;;11.78;8.48;;;;;;;41.19;21.76;100244.66;1778902;80;25439;-70
2022/07/22 11:44:44;;;;;;;15.05;8.90;;;;;;;41.43;22.12;100244.00;1779154;80;25449;-70
2022/07/22 11:47:11;;;;;;;14.00;9.28;;;;;;;41.66;21.46;100248.08;1778819;80;25534;-70
2022/07/22 11:49:39;;;;;;;14.25;8.85;;;;;;;41.57;21.01;100247.77;1779064;79;25540;-70
2022/07/22 11:52:11;;;;;;;13.00;9.00;;;;;;;41.36;21.62;100246.00;1781324;80;27673;-70
2022/07/22 11:54:40;;;;;;;16.00;9.75;;;;;;;41.61;21.77;100250.31;1777157;80;25369;-70
2022/07/22 11:57:07;;;;;;;15.70;9.65;;;;;;;42.02;21.93;100238.10;1773700;79;25398;-70
2022/07/22 11:59:35;;;;;;;14.80;8.55;;;;;;;42.26;20.74;100250.80;1773751;80;25587;-70
2022/07/22 12:02:06;;;;;;;10.08;8.30;;;;;;;42.23;20.86;100241.92;1774019;80;25557;-70
2022/07/22 12:04:32;;;;;;;10.58;8.25;;;;;;;42.67;20.86;100239.26;1773816;79;27473;-70
2022/07/22 12:07:02;;;;;;;12.85;8.20;;;;;;;42.67;20.13;100242.73;1763051;80;25556;-70
2022/07/22 12:09:35;;;;;;;14.03;8.08;;;;;;;42.48;20.04;100232.73;1773752;80;25613;-69
2022/07/22 12:12:03;;;;;;;11.90;8.00;;;;;;;42.41;20.13;100237.60;1773717;80;25418;-70
2022/07/22 12:14:33;;;;;;;13.88;7.90;;;;;;;42.26;20.48;100237.36;1749469;79;25592;-69
2022/07/22 12:17:06;;;;;;;13.55;8.73;;;;;;;42.40;20.14;100231.16;1743172;81;27456;-69
2022/07/22 12:19:36;;;;;;;11.03;9.15;;;;;;;42.21;20.13;100229.67;1743032;81;25402;-69
2022/07/22 12:22:15;;;;;;;18.07;8.13;;;;;;;42.22;19.93;100225.53;1742972;82;25386;-70
2022/07/22 12:24:46;;;;;;;11.55;8.30;;;;;;;42.09;20.07;100238.98;1742975;82;25528;-69
2022/07/22 12:27:18;;;;;;;13.13;8.90;;;;;;;41.72;19.53;100228.18;1743113;81;25531;-69
2022/07/22 12:29:48;;;;;;;14.58;8.70;;;;;;;41.24;20.04;100233.13;1732751;82;27413;-69
2022/07/22 12:32:27;;;;;;;11.95;8.35;;;;;;;41.03;20.26;100229.27;1742927;82;25454;-70
2022/07/22 12:35:06;;;;;;;14.90;9.13;;;;;;;40.49;20.60;100231.16;1743043;82;25594;-70
2022/07/22 12:37:46;;;;;;;11.97;9.15;;;;;;;40.02;20.97;100226.76;1743050;82;25562;-70
2022/07/22 12:40:19;;;;;;;11.60;9.03;;;;;;;39.94;21.36;100225.08;1733046;82;25441;-70
2022/07/22 12:43:03;;;;;;;18.48;9.78;;;;;;;39.41;21.76;100234.02;1743117;82;28309;-70
2022/07/22 12:45:31;;;;;;;20.52;8.93;;;;;;;38.76;21.99;100227.03;1743054;82;26082;-69
2022/07/22 12:48:04;;;;;;;;;;;;;;;38.03;22.59;100227.34;1745618;82;25569;-70
2022/07/22 12:50:34;;;;;;;12.05;9.03;;;;;;;37.59;23.30;100222.86;1743007;81;25851;-70
2022/07/22 12:53:14;;;;;;;15.30;10.68;;;;;;;37.36;24.13;100223.42;1743117;82;25485;-70
2022/07/22 12:55:46;;;;;;;14.50;10.72;;;;;;;37.31;25.48;100219.14;1742985;81;27449;-69
2022/07/22 12:58:15;;;;;;;11.83;10.63;;;;;;;37.40;26.16;100213.33;1743005;82;25420;-70